Time;durP1;ratioP1;P1;durP2;ratioP2;P2;SDS_P1;SDS_P2;PMS_P1;PMS_P2;Temp;Humidity;BMP_temperature;BMP_pressure;BME280_temperature;BME280_humidity;BME280_pressure;Samples;Min_cycle;Max_cycle;Signal;HPM_P1;HPM_P2
2021/04/17 00:01:33;;;;;;;1.90;0.40;;;;;;;11.22;53.11;101304.94;4955323;28;98076;-59
2021/04/17 00:04:01;;;;;;;1.58;0.43;;;;;;;11.21;53.57;101307.91;4953889;28;99050;-58
2021/04/17 00:06:27;;;;;;;2.15;0.32;;;;;;;11.25;53.24;101301.75;4948672;28;107439;-59
2021/04/17 00:08:53;;;;;;;1.63;0.32;;;;;;;11.19;53.28;101297.34;4960371;28;97942;-58
2021/04/17 00:11:19;;;;;;;1.75;0.30;;;;;;;11.20;54.00;101298.16;4951827;28;97917;-58
2021/04/17 00:13:45;;;;;;;1.20;0.32;;;;;;;11.19;53.63;101304.63;4940928;28;128418;-62
2021/04/17 00:16:15;;;;;;;1.88;0.30;;;;;;;11.18;53.92;101297.59;4942535;28;98357;-62
2021/04/17 00:18:41;;;;;;;1.52;0.30;;;;;;;11.18;53.52;101300.31;4942310;28;101131;-58
2021/04/17 00:21:07;;;;;;;1.52;0.30;;;;;;;11.15;53.73;101295.41;4941708;28;117676;-58
2021/04/17 00:23:33;;;;;;;2.03;0.45;;;;;;;11.13;54.05;101292.97;4941389;28;129618;-62
2021/04/17 00:26:00;;;;;;;2.33;0.30;;;;;;;11.12;53.75;101302.13;4943231;28;121329;-62
2021/04/17 00:28:26;;;;;;;2.03;0.40;;;;;;;11.13;53.96;101294.84;4961278;28;98219;-61
2021/04/17 00:30:52;;;;;;;1.55;0.40;;;;;;;11.10;54.07;101301.56;4960766;28;118872;-58
2021/04/17 00:33:18;;;;;;;1.23;0.30;;;;;;;11.09;54.23;101302.63;4959267;28;128293;-61
2021/04/17 00:35:44;;;;;;;1.63;0.40;;;;;;;11.07;54.36;101300.16;4961470;28;111055;-62
2021/04/17 00:38:10;;;;;;;1.42;0.30;;;;;;;11.05;54.59;101302.31;4962521;28;97945;-59
2021/04/17 00:40:36;;;;;;;1.75;0.30;;;;;;;11.04;54.82;101300.69;4947486;28;98305;-58
2021/04/17 00:43:03;;;;;;;1.92;0.20;;;;;;;11.04;54.35;101300.69;4960271;28;127923;-58
2021/04/17 00:45:29;;;;;;;1.52;0.30;;;;;;;10.99;54.39;101299.78;4961403;28;99158;-58
2021/04/17 00:47:55;;;;;;;1.23;0.28;;;;;;;10.99;55.03;101299.78;4960904;28;123055;-58
2021/04/17 00:50:21;;;;;;;1.83;0.30;;;;;;;10.99;54.99;101299.78;4949875;28;117709;-62
2021/04/17 00:52:47;;;;;;;1.95;0.20;;;;;;;11.00;55.76;101293.31;4940976;28;111221;-61
2021/04/17 00:55:14;;;;;;;1.17;0.35;;;;;;;10.95;55.44;101301.34;4961263;28;100899;-58
2021/04/17 00:57:40;;;;;;;2.00;0.30;;;;;;;10.97;55.51;101301.94;4961749;28;112419;-61
2021/04/17 01:00:07;;;;;;;2.03;0.40;;;;;;;10.94;55.81;101303.22;4963329;28;97799;-62
2021/04/17 01:02:37;;;;;;;4.00;0.40;;;;;;;10.90;55.55;101304.00;4958259;28;119583;-61
2021/04/17 01:05:09;;;;;;;2.00;0.30;;;;;;;10.90;55.81;101309.38;4955405;28;98333;-59
2021/04/17 01:07:39;;;;;;;1.73;0.30;;;;;;;10.87;56.07;101304.47;4950763;28;111112;-61
2021/04/17 01:10:07;;;;;;;1.10;0.20;;;;;;;10.90;56.18;101302.09;4964341;28;98172;-62
2021/04/17 01:12:38;;;;;;;1.77;0.40;;;;;;;10.88;55.99;101303.41;4964031;28;98737;-62
2021/04/17 01:15:05;;;;;;;1.80;0.30;;;;;;;10.88;56.30;101306.91;4962846;28;114107;-58
2021/04/17 01:17:31;;;;;;;2.22;0.30;;;;;;;10.85;56.37;101309.31;4964118;28;113852;-61
2021/04/17 01:20:20;;;;;;;2.17;0.38;;;;;;;10.79;56.65;101306.53;4951018;28;115765;-58
2021/04/17 01:22:57;;;;;;;1.38;0.30;;;;;;;10.79;56.71;101300.31;4927442;28;113340;-61
2021/04/17 01:25:23;;;;;;;1.75;0.30;;;;;;;10.72;56.58;101299.69;4944916;28;99094;-62
2021/04/17 01:27:49;;;;;;;1.98;0.30;;;;;;;10.73;57.16;101310.22;4923480;28;128193;-59
2021/04/17 01:30:18;;;;;;;1.83;0.35;;;;;;;10.68;57.52;101303.94;4941629;28;115810;-62
2021/04/17 01:32:45;;;;;;;2.58;0.30;;;;;;;10.66;57.36;101300.69;4946179;28;99099;-62
2021/04/17 01:35:13;;;;;;;2.35;0.30;;;;;;;10.63;57.50;101310.06;4926535;28;98353;-58
2021/04/17 01:38:34;;;;;;;2.13;0.38;;;;;;;10.64;57.37;101306.31;4942176;28;100083;-62
2021/04/17 01:41:23;;;;;;;1.42;0.30;;;;;;;10.58;57.45;101310.00;4944722;28;97902;-58
2021/04/17 01:43:51;;;;;;;1.67;0.30;;;;;;;10.59;57.42;101298.16;4944281;28;98163;-61
2021/04/17 01:46:21;;;;;;;1.40;0.28;;;;;;;10.60;58.33;101297.09;4950896;28;123374;-58
2021/04/17 01:48:47;;;;;;;1.63;0.40;;;;;;;10.64;57.89;101300.91;4957869;28;109946;-58
2021/04/17 01:51:13;;;;;;;1.80;0.30;;;;;;;10.60;57.96;101291.69;4911418;28;98286;-58
2021/04/17 01:53:41;;;;;;;1.70;0.20;;;;;;;10.55;58.20;101291.63;4943690;28;127625;-58
2021/04/17 01:56:07;;;;;;;1.85;0.30;;;;;;;10.54;58.05;101290.81;4940860;28;98646;-58
2021/04/17 01:58:38;;;;;;;2.33;0.30;;;;;;;10.54;58.75;101290.00;4941957;28;115953;-58
2021/04/17 02:01:04;;;;;;;1.95;0.30;;;;;;;10.57;58.46;101287.63;4956930;28;97885;-58
2021/04/17 02:03:30;;;;;;;1.70;0.40;;;;;;;10.53;58.62;101275.72;4944206;28;97882;-61
2021/04/17 02:05:57;;;;;;;1.67;0.30;;;;;;;10.53;58.72;101270.31;4941575;28;98423;-58
2021/04/17 02:08:23;;;;;;;1.38;0.30;;;;;;;10.53;58.48;101266.78;4943270;28;113478;-58
2021/04/17 02:10:50;;;;;;;1.58;0.35;;;;;;;10.48;59.32;101255.94;4946050;28;98038;-58
2021/04/17 02:13:17;;;;;;;2.00;0.30;;;;;;;10.48;59.32;101262.13;4963641;28;97844;-58
2021/04/17 02:15:43;;;;;;;1.88;0.30;;;;;;;10.48;59.00;101259.44;4962572;28;98045;-61
2021/04/17 02:18:29;;;;;;;1.90;0.30;;;;;;;10.47;58.58;101260.50;4962044;28;98816;-58
2021/04/17 02:21:02;;;;;;;1.70;0.30;;;;;;;10.44;58.95;101257.50;4946822;28;97929;-62
2021/04/17 02:23:29;;;;;;;1.92;0.30;;;;;;;10.46;58.62;101260.78;4959752;28;98519;-61
2021/04/17 02:25:57;;;;;;;2.50;0.50;;;;;;;10.42;59.06;101263.13;4957453;28;99344;-58
2021/04/17 02:28:24;;;;;;;1.80;0.40;;;;;;;10.43;59.16;101250.47;4951055;28;98285;-58
2021/04/17 02:30:50;;;;;;;1.52;0.40;;;;;;;10.44;58.78;101249.41;4960976;28;107576;-58
2021/04/17 02:33:16;;;;;;;1.17;0.30;;;;;;;10.43;59.29;101242.38;4961502;28;104506;-58
2021/04/17 02:35:42;;;;;;;2.25;0.30;;;;;;;10.41;59.54;101252.59;4960555;28;115481;-59
2021/04/17 02:38:09;;;;;;;1.77;0.32;;;;;;;10.41;59.79;101247.19;4963544;28;111108;-62
2021/04/17 02:40:35;;;;;;;1.52;0.40;;;;;;;10.39;59.19;101252.84;4962236;28;98078;-58
2021/04/17 02:43:01;;;;;;;1.17;0.38;;;;;;;10.39;59.20;101252.03;4941766;28;99640;-61
2021/04/17 02:45:27;;;;;;;2.05;0.40;;;;;;;10.38;59.98;101256.59;4942134;28;102203;-58
2021/04/17 02:47:53;;;;;;;1.50;0.35;;;;;;;10.36;59.69;101258.72;4941127;28;127151;-58
2021/04/17 02:50:20;;;;;;;1.60;0.40;;;;;;;10.36;59.84;101256.03;4943568;28;116760;-61
2021/04/17 02:52:47;;;;;;;1.40;0.30;;;;;;;10.37;59.61;101254.97;4926006;28;98515;-62
2021/04/17 02:55:14;;;;;;;1.65;0.35;;;;;;;10.37;59.94;101252.25;4955123;28;98258;-61
2021/04/17 02:57:40;;;;;;;1.30;0.30;;;;;;;10.34;60.02;101250.09;4942741;28;100439;-58
2021/04/17 03:00:07;;;;;;;1.55;0.40;;;;;;;10.34;59.60;101257.34;4942308;28;116987;-62
2021/04/17 03:02:34;;;;;;;1.65;0.30;;;;;;;10.34;60.23;101251.97;4942221;28;117337;-61
2021/04/17 03:05:00;;;;;;;1.15;0.30;;;;;;;10.32;59.99;101244.91;4942151;28;114826;-62
2021/04/17 03:07:26;;;;;;;2.38;0.30;;;;;;;10.31;59.89;101250.56;4943724;28;98181;-58
2021/04/17 03:09:52;;;;;;;2.75;0.30;;;;;;;10.31;59.95;101248.69;4942718;28;97823;-58
2021/04/17 03:12:18;;;;;;;1.55;0.40;;;;;;;10.29;59.48;101244.59;4941706;28;127916;-58
2021/04/17 03:14:44;;;;;;;1.00;0.20;;;;;;;10.29;59.90;101245.41;4942579;28;125027;-59
2021/04/17 03:17:10;;;;;;;1.33;0.30;;;;;;;10.31;59.75;101245.19;4942517;28;127077;-58
2021/04/17 03:19:39;;;;;;;3.30;0.47;;;;;;;10.27;60.27;101244.03;4957471;28;98155;-62
2021/04/17 03:22:07;;;;;;;1.38;0.32;;;;;;;10.27;60.41;101235.94;4949518;28;122779;-62
2021/04/17 03:24:34;;;;;;;2.15;0.30;;;;;;;10.27;59.78;101244.03;4942810;28;98565;-61
2021/04/17 03:27:01;;;;;;;1.58;0.35;;;;;;;10.25;59.79;101240.75;4942342;28;98321;-58
2021/04/17 03:29:27;;;;;;;1.05;0.28;;;;;;;10.27;60.27;101244.84;4943240;28;97665;-58
2021/04/17 03:31:53;;;;;;;1.40;0.30;;;;;;;10.26;60.04;101243.22;4942326;28;126994;-61
2021/04/17 03:34:19;;;;;;;1.13;0.20;;;;;;;10.25;60.24;101246.16;4943904;28;99119;-62
2021/04/17 03:36:45;;;;;;;2.00;0.30;;;;;;;10.23;60.03;101240.97;4941990;28;127228;-62
2021/04/17 03:39:11;;;;;;;1.05;0.30;;;;;;;10.23;59.95;101249.06;4942478;28;117952;-58
2021/04/17 03:41:37;;;;;;;1.20;0.20;;;;;;;10.23;60.59;101240.97;4941739;28;127107;-62
2021/04/17 03:44:04;;;;;;;0.93;0.30;;;;;;;10.22;60.02;101238.56;4942172;28;126174;-61
2021/04/17 03:46:30;;;;;;;1.52;0.30;;;;;;;10.23;60.69;101234.78;4944630;28;108576;-61
2021/04/17 03:48:57;;;;;;;1.17;0.20;;;;;;;10.22;60.68;101236.66;4934483;28;118820;-62
2021/04/17 03:51:23;;;;;;;0.90;0.20;;;;;;;10.22;60.41;101236.66;4942030;28;98506;-58
2021/04/17 03:53:49;;;;;;;2.10;0.30;;;;;;;10.20;60.43;101241.47;4942196;28;98669;-58
2021/04/17 03:56:15;;;;;;;1.10;0.20;;;;;;;10.21;60.08;101237.72;4943229;28;98415;-62
2021/04/17 03:58:41;;;;;;;1.42;0.30;;;;;;;10.20;60.51;101248.75;4961439;28;113948;-61
2021/04/17 04:01:08;;;;;;;2.00;0.30;;;;;;;10.21;59.89;101253.06;4961354;28;122628;-62
2021/04/17 04:03:34;;;;;;;1.45;0.30;;;;;;;10.21;60.30;101253.88;4961830;28;99053;-62
2021/04/17 04:06:00;;;;;;;1.20;0.20;;;;;;;10.19;60.46;101247.94;4962414;28;98180;-58
2021/04/17 04:08:26;;;;;;;2.70;0.30;;;;;;;10.21;60.58;101250.38;4961253;28;119150;-61
2021/04/17 04:10:52;;;;;;;1.00;0.30;;;;;;;10.20;60.45;101244.16;4959326;28;108335;-61
2021/04/17 04:13:19;;;;;;;1.65;0.20;;;;;;;10.22;60.54;101236.66;4948753;28;98542;-59
2021/04/17 04:15:45;;;;;;;1.33;0.20;;;;;;;10.25;60.55;101240.75;4939860;28;97893;-62
2021/04/17 04:18:11;;;;;;;1.90;0.25;;;;;;;10.19;60.33;101247.13;4942175;28;117091;-62
2021/04/17 04:20:37;;;;;;;1.00;0.40;;;;;;;10.19;60.54;101245.22;4940612;28;128063;-62
2021/04/17 04:23:03;;;;;;;1.50;0.30;;;;;;;10.21;60.34;101255.75;4961063;28;128359;-59
2021/04/17 04:25:29;;;;;;;2.08;0.30;;;;;;;10.18;60.13;101249.00;4947305;28;98267;-59
2021/04/17 04:27:55;;;;;;;2.00;0.30;;;;;;;10.18;60.50;101253.53;4960931;28;97918;-58
2021/04/17 04:30:23;;;;;;;1.17;0.30;;;;;;;10.17;59.82;101241.16;4961260;28;98228;-58
2021/04/17 04:32:49;;;;;;;1.33;0.30;;;;;;;10.21;60.43;101247.66;4958457;28;99137;-62
2021/04/17 04:35:15;;;;;;;2.60;0.20;;;;;;;10.18;60.20;101249.00;4960025;28;127620;-59
2021/04/17 04:37:41;;;;;;;1.63;0.30;;;;;;;10.20;60.42;101246.84;4961615;28;98036;-58
2021/04/17 04:40:08;;;;;;;2.67;0.30;;;;;;;10.23;60.51;101249.06;4960139;28;128140;-61
2021/04/17 04:42:34;;;;;;;0.90;0.20;;;;;;;10.30;59.45;101246.25;4961503;28;110797;-62
2021/04/17 04:45:02;;;;;;;1.48;0.28;;;;;;;10.32;59.38;101247.63;4942186;28;98037;-59
2021/04/17 04:47:28;;;;;;;2.50;0.30;;;;;;;10.36;59.20;101244.44;4942123;28;97849;-61
2021/04/17 04:49:54;;;;;;;1.45;0.32;;;;;;;10.37;59.50;101240.66;4938320;28;127062;-62
2021/04/17 04:52:20;;;;;;;1.58;0.30;;;;;;;10.39;59.51;101239.38;4947015;28;98325;-62
2021/04/17 04:54:46;;;;;;;1.50;0.28;;;;;;;10.40;59.24;101242.88;4939786;28;98184;-59
2021/04/17 04:57:12;;;;;;;1.98;0.30;;;;;;;10.40;59.62;101240.19;4953789;28;117613;-62
2021/04/17 04:59:38;;;;;;;1.35;0.20;;;;;;;10.38;59.82;101237.75;4960018;28;125588;-63
2021/04/17 05:02:05;;;;;;;1.48;0.30;;;;;;;10.39;59.59;101250.16;4952967;28;128657;-62
2021/04/17 05:04:31;;;;;;;1.13;0.20;;;;;;;10.40;59.32;101232.91;4932560;28;118898;-62
2021/04/17 05:06:57;;;;;;;1.42;0.30;;;;;;;10.42;59.68;101244.28;4941986;28;97982;-58
2021/04/17 05:09:23;;;;;;;1.42;0.30;;;;;;;10.43;59.18;101248.59;4941686;28;98353;-59
2021/04/17 05:11:49;;;;;;;1.65;0.30;;;;;;;10.44;58.90;101241.31;4947302;28;127391;-58
2021/04/17 05:14:15;;;;;;;1.67;0.30;;;;;;;10.46;59.77;101239.19;4961407;28;98584;-62
2021/04/17 05:16:41;;;;;;;1.55;0.30;;;;;;;10.47;59.85;101240.81;4960260;28;116595;-62
2021/04/17 05:19:07;;;;;;;1.38;0.20;;;;;;;10.51;58.87;101239.28;4958896;28;98112;-58
2021/04/17 05:21:33;;;;;;;1.25;0.25;;;;;;;10.52;59.23;101238.19;4960580;28;124949;-61
2021/04/17 05:24:00;;;;;;;1.13;0.22;;;;;;;10.60;58.72;101237.78;4958435;28;126557;-59
2021/04/17 05:26:29;;;;;;;0.82;0.20;;;;;;;10.63;59.11;101236.47;4961580;28;97798;-62
2021/04/17 05:28:55;;;;;;;1.10;0.30;;;;;;;10.65;59.25;101223.53;4956965;28;129379;-58
2021/04/17 05:31:21;;;;;;;1.27;0.25;;;;;;;10.66;58.83;101231.41;4954057;28;97848;-63
2021/04/17 05:33:47;;;;;;;1.27;0.22;;;;;;;10.64;59.28;101236.19;4947769;28;125430;-59
2021/04/17 05:36:13;;;;;;;1.33;0.20;;;;;;;10.65;58.89;101232.47;4951985;28;98135;-59
2021/04/17 05:38:39;;;;;;;1.50;0.40;;;;;;;10.69;59.15;101236.28;4956801;28;127817;-61
2021/04/17 05:41:05;;;;;;;1.40;0.22;;;;;;;10.71;59.48;101230.63;4954790;28;98173;-58
2021/04/17 05:43:31;;;;;;;1.30;0.30;;;;;;;10.84;58.95;101232.97;4956704;28;98364;-62
2021/04/17 05:45:57;;;;;;;0.90;0.20;;;;;;;10.84;59.46;101226.75;4946631;28;116621;-59
2021/04/17 05:48:23;;;;;;;2.17;0.40;;;;;;;10.90;59.21;101223.88;4961168;28;106826;-62
2021/04/17 05:50:49;;;;;;;1.05;0.30;;;;;;;10.98;58.91;101222.63;4940433;28;109655;-62
2021/04/17 05:53:15;;;;;;;1.42;0.20;;;;;;;11.00;58.89;101223.16;4957038;28;124436;-59
2021/04/17 05:55:41;;;;;;;0.80;0.20;;;;;;;11.09;59.41;101220.88;4957801;28;116871;-62
2021/04/17 05:58:08;;;;;;;1.20;0.20;;;;;;;11.08;59.32;101217.31;4957154;28;98252;-62
2021/04/17 06:00:34;;;;;;;2.40;0.25;;;;;;;11.07;59.19;101211.13;4959773;28;127145;-62
2021/04/17 06:03:01;;;;;;;1.20;0.30;;;;;;;11.02;59.30;101216.47;4955887;28;127923;-62
2021/04/17 06:05:28;;;;;;;2.20;0.25;;;;;;;11.05;59.34;101213.28;4956588;28;97840;-63
2021/04/17 06:07:54;;;;;;;0.88;0.25;;;;;;;11.05;59.83;101204.38;4963181;28;97830;-62
2021/04/17 06:10:20;;;;;;;1.73;0.30;;;;;;;11.03;59.02;101193.81;4964863;28;119065;-59
2021/04/17 06:12:46;;;;;;;1.25;0.30;;;;;;;11.06;59.97;101195.19;4959343;28;127638;-58
2021/04/17 06:15:13;;;;;;;1.35;0.30;;;;;;;11.06;59.57;101189.81;4959633;28;98014;-58
2021/04/17 06:17:40;;;;;;;1.85;0.30;;;;;;;11.09;59.42;101189.31;4960178;28;98758;-59
2021/04/17 06:20:07;;;;;;;1.10;0.30;;;;;;;11.13;59.81;101195.81;4960048;28;108653;-62
2021/04/17 06:22:33;;;;;;;0.98;0.30;;;;;;;11.23;59.55;101195.09;4960647;28;98820;-62
2021/04/17 06:24:59;;;;;;;1.45;0.25;;;;;;;11.34;58.85;101201.44;4959679;28;108226;-59
2021/04/17 06:27:25;;;;;;;1.60;0.30;;;;;;;11.55;58.32;101197.84;4952890;28;98315;-59
2021/04/17 06:29:51;;;;;;;1.15;0.22;;;;;;;11.88;57.58;101198.72;4959362;28;99413;-62
2021/04/17 06:32:17;;;;;;;0.80;0.30;;;;;;;12.15;57.07;101199.47;4957230;28;106954;-59
2021/04/17 06:34:47;;;;;;;1.20;0.30;;;;;;;12.48;56.37;101195.59;4958993;28;118703;-63
2021/04/17 06:37:13;;;;;;;1.10;0.35;;;;;;;12.67;56.09;101204.09;4959708;28;98706;-62
2021/04/17 06:39:39;;;;;;;1.55;0.30;;;;;;;12.78;56.46;101197.66;4960397;28;108872;-62
2021/04/17 06:42:09;;;;;;;1.05;0.30;;;;;;;12.94;56.00;101195.81;4950947;28;97992;-59
2021/04/17 06:44:36;;;;;;;1.05;0.30;;;;;;;12.90;56.43;101186.59;4924757;28;98105;-62
2021/04/17 06:47:03;;;;;;;1.77;0.40;;;;;;;12.90;56.49;101196.59;4941967;28;98660;-62
2021/04/17 06:49:29;;;;;;;1.40;0.30;;;;;;;12.90;56.52;101199.31;4957150;28;110883;-59
2021/04/17 06:51:55;;;;;;;1.67;0.40;;;;;;;12.88;57.21;101204.16;4957170;28;127383;-59
2021/04/17 06:54:22;;;;;;;1.00;0.50;;;;;;;12.91;57.14;101211.75;4957980;28;98189;-62
2021/04/17 06:56:49;;;;;;;2.17;0.57;;;;;;;12.93;57.28;101199.59;4956331;28;124301;-62
2021/04/17 06:59:15;;;;;;;1.83;0.40;;;;;;;13.01;57.27;101203.69;4957542;28;98039;-61
2021/04/17 07:01:41;;;;;;;1.63;0.40;;;;;;;13.05;57.37;101199.38;4959641;28;97902;-59
2021/04/17 07:04:07;;;;;;;1.90;0.40;;;;;;;13.13;56.91;101195.34;4954051;28;98210;-62
2021/04/17 07:06:33;;;;;;;1.33;0.38;;;;;;;13.29;56.60;101196.22;4958881;28;120707;-62
2021/04/17 07:09:00;;;;;;;1.65;0.30;;;;;;;13.46;56.42;101199.47;4941009;28;98697;-62
2021/04/17 07:11:26;;;;;;;1.27;0.30;;;;;;;13.54;55.80;101201.66;4956759;28;127936;-62
2021/04/17 07:14:16;;;;;;;1.85;0.50;;;;;;;13.62;56.04;101190.28;4958154;28;98067;-59
2021/04/17 07:17:01;;;;;;;1.20;0.30;;;;;;;13.54;56.30;101198.16;4957236;28;98330;-62
2021/04/17 07:19:49;;;;;;;1.67;0.50;;;;;;;13.44;56.77;101204.34;4954779;28;98368;-64
2021/04/17 07:22:30;;;;;;;2.10;0.40;;;;;;;13.35;57.24;101198.66;4958411;28;97912;-62
2021/04/17 07:25:06;;;;;;;1.20;0.40;;;;;;;13.27;57.38;101196.47;4956756;28;98073;-59
2021/04/17 07:27:40;;;;;;;1.40;0.40;;;;;;;13.18;58.15;101206.16;4956732;28;98966;-62
2021/04/17 07:30:30;;;;;;;1.83;0.40;;;;;;;13.17;58.03;101199.94;4956642;28;98405;-58
2021/04/17 07:33:14;;;;;;;1.33;0.38;;;;;;;13.13;58.30;101198.84;4955463;28;98259;-62
2021/04/17 07:35:46;;;;;;;1.88;0.40;;;;;;;13.16;57.86;101194.78;4959067;28;98145;-62
2021/04/17 07:38:24;;;;;;;1.98;0.40;;;;;;;13.14;58.34;101197.75;4951941;28;98778;-59
2021/04/17 07:41:09;;;;;;;1.13;0.55;;;;;;;13.24;57.86;101197.00;4950815;28;118276;-59
2021/04/17 07:43:55;;;;;;;2.25;0.40;;;;;;;13.26;57.79;101197.56;4957619;28;98470;-62
2021/04/17 07:46:39;;;;;;;1.58;0.30;;;;;;;13.33;57.98;101197.31;4958372;28;97912;-63
2021/04/17 07:49:15;;;;;;;1.40;0.50;;;;;;;13.39;57.49;101194.31;4955183;28;101248;-62
2021/04/17 07:52:13;;;;;;;1.30;0.40;;;;;;;13.52;57.20;101198.41;4958907;28;99065;-59
2021/04/17 07:55:00;;;;;;;1.80;0.40;;;;;;;13.60;57.38;101194.38;4956503;28;98816;-62
2021/04/17 07:57:41;;;;;;;1.10;0.30;;;;;;;13.60;57.11;101203.31;4952708;28;97952;-62
2021/04/17 08:00:09;;;;;;;1.58;0.30;;;;;;;13.64;57.23;101198.16;4958164;28;98418;-59
2021/04/17 08:02:36;;;;;;;1.65;0.50;;;;;;;13.54;57.40;101207.06;4956798;28;99021;-59
2021/04/17 08:05:03;;;;;;;1.67;0.38;;;;;;;13.57;57.67;101201.13;4958260;28;98228;-59
2021/04/17 08:07:29;;;;;;;1.95;0.47;;;;;;;13.55;57.17;101194.34;4959102;28;97756;-59
2021/04/17 08:09:58;;;;;;;1.80;0.50;;;;;;;13.63;57.50;101199.22;4939247;28;118107;-62
2021/04/17 08:12:25;;;;;;;1.25;0.35;;;;;;;13.65;57.46;101203.31;4939383;28;127813;-62
2021/04/17 08:14:51;;;;;;;1.98;0.40;;;;;;;13.68;57.43;101197.34;4956274;28;98981;-62
2021/04/17 08:17:18;;;;;;;1.70;0.40;;;;;;;13.72;57.32;101195.72;4959194;28;97898;-62
2021/04/17 08:19:45;;;;;;;1.13;0.50;;;;;;;13.83;57.14;101199.22;4952875;28;109876;-59
2021/04/17 08:22:11;;;;;;;1.60;0.70;;;;;;;13.83;57.27;101195.72;4956126;28;121119;-62
2021/04/17 08:24:37;;;;;;;1.52;0.50;;;;;;;13.93;56.82;101201.94;4957506;28;97895;-63
2021/04/17 08:27:04;;;;;;;2.08;0.60;;;;;;;14.00;56.76;101194.34;4957482;28;97943;-62
2021/04/17 08:29:53;;;;;;;1.23;0.60;;;;;;;13.94;57.21;101191.91;4956402;28;112086;-59
2021/04/17 08:32:43;;;;;;;1.52;0.70;;;;;;;13.93;57.17;101198.44;4959220;28;98232;-63
2021/04/17 08:35:17;;;;;;;1.25;0.60;;;;;;;13.92;57.10;101211.16;4958608;28;98017;-62
2021/04/17 08:37:52;;;;;;;1.80;0.77;;;;;;;13.94;57.46;101194.63;4959137;28;98243;-62
2021/04/17 08:40:39;;;;;;;1.20;0.50;;;;;;;13.94;57.39;101190.00;4958416;28;98510;-59
2021/04/17 08:43:12;;;;;;;1.88;0.50;;;;;;;13.95;57.10;101198.94;4958515;28;98250;-59
2021/04/17 08:46:08;;;;;;;1.30;0.50;;;;;;;14.03;57.15;101190.28;4957215;28;98312;-62
2021/04/17 08:49:01;;;;;;;2.20;0.57;;;;;;;14.10;56.88;101182.69;4956724;28;98157;-62
2021/04/17 08:51:38;;;;;;;1.20;0.55;;;;;;;14.12;56.90;101187.84;4958495;28;98337;-62
2021/04/17 08:54:08;;;;;;;1.45;0.60;;;;;;;14.11;56.72;101187.03;4957461;28;98328;-59
2021/04/17 08:57:03;;;;;;;1.30;0.45;;;;;;;14.13;56.99;101189.47;4957881;28;97799;-62
2021/04/17 08:59:36;;;;;;;1.15;0.40;;;;;;;14.14;57.02;101189.16;4958542;28;97805;-62
2021/04/17 09:02:10;;;;;;;1.60;0.60;;;;;;;14.23;56.96;101181.31;4919665;28;98908;-59
2021/04/17 09:04:58;;;;;;;1.88;0.60;;;;;;;14.29;56.75;101187.53;4956112;28;98582;-59
2021/04/17 09:07:26;;;;;;;2.10;0.60;;;;;;;14.36;56.47;101182.63;4942565;28;97907;-59
2021/04/17 09:09:52;;;;;;;2.00;0.50;;;;;;;14.44;56.36;101190.22;4958043;28;97709;-59
2021/04/17 09:12:27;;;;;;;2.25;0.50;;;;;;;14.49;56.61;101188.31;4955370;28;98230;-59
2021/04/17 09:14:58;;;;;;;2.13;0.70;;;;;;;14.65;56.22;101188.25;4955540;28;98589;-62
2021/04/17 09:17:35;;;;;;;1.38;0.55;;;;;;;14.92;55.20;101187.88;4958500;28;97975;-62
2021/04/17 09:20:06;;;;;;;1.38;0.60;;;;;;;15.06;55.03;101180.75;4959047;28;97928;-59
2021/04/17 09:22:32;;;;;;;1.30;0.60;;;;;;;15.07;54.74;101192.44;4959344;28;98598;-59
2021/04/17 09:25:02;;;;;;;1.92;0.43;;;;;;;14.91;55.58;101199.84;4961167;28;98268;-62
2021/04/17 09:27:32;;;;;;;1.77;0.50;;;;;;;14.72;56.48;101205.88;4961878;28;97914;-59
2021/04/17 09:30:06;;;;;;;2.63;0.50;;;;;;;14.52;56.83;101202.44;4960504;28;107969;-62
2021/04/17 09:32:35;;;;;;;1.40;0.60;;;;;;;14.48;56.79;101199.41;4961977;28;98098;-63
2021/04/17 09:35:11;;;;;;;1.85;0.70;;;;;;;14.54;56.58;101192.94;4960652;28;98261;-62
2021/04/17 09:37:37;;;;;;;2.33;0.70;;;;;;;14.60;56.25;101185.59;4961130;28;98671;-59
2021/04/17 09:40:05;;;;;;;2.03;0.60;;;;;;;14.71;56.23;101187.97;4959966;28;117064;-59
2021/04/17 09:42:32;;;;;;;2.45;0.68;;;;;;;14.88;55.01;101195.78;4961554;28;98262;-59
2021/04/17 09:44:59;;;;;;;2.28;1.00;;;;;;;14.94;54.67;101188.44;4960097;28;98447;-59
2021/04/17 09:47:25;;;;;;;2.08;0.60;;;;;;;14.98;55.11;101189.50;4961202;28;98098;-59
2021/04/17 09:49:53;;;;;;;1.67;0.50;;;;;;;15.12;54.54;101185.06;4959815;28;97851;-62
2021/04/17 09:52:24;;;;;;;1.83;0.60;;;;;;;15.14;54.57;101188.31;4960845;28;98232;-63
2021/04/17 09:55:00;;;;;;;1.65;0.63;;;;;;;15.27;54.34;101189.59;4959117;28;98549;-62
2021/04/17 09:57:27;;;;;;;1.10;0.50;;;;;;;15.25;54.27;101186.38;4959242;28;98241;-59
2021/04/17 09:59:58;;;;;;;1.92;0.73;;;;;;;15.21;54.50;101185.31;4959016;28;98136;-63
2021/04/17 10:02:43;;;;;;;1.98;0.63;;;;;;;15.22;54.96;101184.19;4960501;28;98775;-59
2021/04/17 10:05:11;;;;;;;1.60;0.68;;;;;;;15.21;54.97;101180.69;4940198;28;98582;-59
2021/04/17 10:07:50;;;;;;;2.25;0.82;;;;;;;15.27;55.20;101178.72;4953478;28;97803;-59
2021/04/17 10:10:16;;;;;;;1.58;0.65;;;;;;;15.34;54.92;101183.84;4961131;28;98063;-59
2021/04/17 10:12:53;;;;;;;2.03;0.60;;;;;;;15.42;54.88;101181.34;4960141;28;126904;-59
2021/04/17 10:15:27;;;;;;;1.75;0.70;;;;;;;15.58;54.23;101179.34;4960236;28;112658;-59
2021/04/17 10:17:56;;;;;;;1.70;0.50;;;;;;;15.69;54.20;101172.75;4960071;28;97954;-59
2021/04/17 10:20:22;;;;;;;2.83;0.60;;;;;;;15.80;53.86;101167.22;4960112;28;97768;-62
2021/04/17 10:22:56;;;;;;;1.60;0.55;;;;;;;15.82;54.04;101173.19;4959596;28;120527;-59
2021/04/17 10:25:44;;;;;;;2.42;0.85;;;;;;;15.90;54.05;101162.50;4959542;28;112187;-59
2021/04/17 10:28:19;;;;;;;3.13;0.80;;;;;;;15.83;54.08;101175.63;4960031;28;98304;-63
2021/04/17 10:30:47;;;;;;;2.65;0.85;;;;;;;15.79;54.36;101174.56;4959751;28;97979;-59
2021/04/17 10:33:21;;;;;;;1.70;0.75;;;;;;;15.78;54.42;101170.22;4959556;28;108427;-63
2021/04/17 10:35:48;;;;;;;2.97;0.63;;;;;;;15.88;54.06;101167.44;4959258;28;105018;-63
2021/04/17 10:38:28;;;;;;;1.73;0.50;;;;;;;15.90;53.87;101159.78;4959929;28;98187;-59
2021/04/17 10:40:56;;;;;;;3.13;0.70;;;;;;;16.02;54.05;101167.56;4960377;28;97840;-59
2021/04/17 10:43:22;;;;;;;1.80;0.68;;;;;;;16.08;53.93;101168.34;4940742;28;98989;-59
2021/04/17 10:45:50;;;;;;;1.73;0.70;;;;;;;16.07;53.99;101167.53;4956378;28;98954;-59
2021/04/17 10:48:20;;;;;;;2.15;0.63;;;;;;;16.13;53.55;101160.94;4959055;28;98170;-59
2021/04/17 10:50:58;;;;;;;1.70;0.70;;;;;;;16.16;53.97;101154.13;4959777;28;98060;-63
2021/04/17 10:53:33;;;;;;;1.33;0.55;;;;;;;16.19;53.83;101161.69;4959141;28;98725;-63
2021/04/17 10:56:05;;;;;;;1.55;0.75;;;;;;;16.11;54.09;101159.59;4959285;28;99080;-63
2021/04/17 10:58:34;;;;;;;1.23;0.60;;;;;;;16.17;54.54;101153.00;4925748;28;116825;-59
2021/04/17 11:01:02;;;;;;;1.63;0.80;;;;;;;16.13;54.02;101160.94;4957166;28;110420;-59
2021/04/17 11:03:39;;;;;;;1.90;0.80;;;;;;;16.04;54.81;101162.66;4959826;28;98795;-63
2021/04/17 11:06:16;;;;;;;2.42;0.80;;;;;;;16.11;54.04;101152.25;4959012;28;107109;-59
2021/04/17 11:08:43;;;;;;;1.45;0.63;;;;;;;16.16;53.83;101156.84;4959991;28;105615;-59
2021/04/17 11:11:17;;;;;;;2.08;0.80;;;;;;;16.35;53.83;101155.00;4960425;28;98361;-63
2021/04/17 11:13:44;;;;;;;2.00;0.70;;;;;;;16.61;53.09;101155.50;4959165;28;98092;-59
2021/04/17 11:16:12;;;;;;;2.92;0.80;;;;;;;17.00;52.43;101151.75;4960099;28;98427;-59
2021/04/17 11:18:43;;;;;;;1.58;0.63;;;;;;;17.57;51.20;101143.56;4958818;28;97776;-60
2021/04/17 11:21:12;;;;;;;2.15;0.70;;;;;;;18.15;50.15;101148.53;4960025;28;97942;-63
2021/04/17 11:23:44;;;;;;;3.25;0.70;;;;;;;18.34;49.75;101140.25;4959345;28;98627;-63
2021/04/17 11:26:20;;;;;;;2.17;0.63;;;;;;;18.45;49.99;101144.41;4959030;28;98615;-63
2021/04/17 11:28:49;;;;;;;1.80;0.57;;;;;;;18.36;50.27;101151.69;4955833;28;98431;-63
2021/04/17 11:31:23;;;;;;;1.58;0.68;;;;;;;18.29;50.88;101141.19;4959316;28;98092;-63
2021/04/17 11:33:51;;;;;;;1.48;0.50;;;;;;;18.24;50.93;101138.56;4941363;28;101784;-60